Time;durP1;ratioP1;P1;durP2;ratioP2;P2;SDS_P1;SDS_P2;PMS_P1;PMS_P2;Temp;Humidity;BMP_temperature;BMP_pressure;BME280_temperature;BME280_humidity;BME280_pressure;Samples;Min_cycle;Max_cycle;Signal;HPM_P1;HPM_P2
2021/08/10 00:01:06;;;;;;;4.53;2.08;;;;;;;;;;5064941;28;20048;-80
2021/08/10 00:03:31;;;;;;;5.63;2.00;;;16.90;99.90;;;;;;5059753;28;20016;-80
2021/08/10 00:05:57;;;;;;;4.47;2.13;;;;;;;;;;5061360;28;20071;-80
2021/08/10 00:08:23;;;;;;;4.95;2.30;;;;;;;;;;5060408;28;20100;-80
2021/08/10 00:10:50;;;;;;;7.00;2.00;;;16.80;99.90;;;;;;5059457;28;20032;-81
2021/08/10 00:13:19;;;;;;;4.07;1.88;;;16.80;99.90;;;;;;5062857;28;20021;-80
2021/08/10 00:15:45;;;;;;;5.27;1.97;;;;;;;;;;5062187;28;20033;-82
2021/08/10 00:18:12;;;;;;;6.80;2.38;;;;;;;;;;5060398;28;20028;-80
2021/08/10 00:20:38;;;;;;;5.47;2.13;;;16.90;99.90;;;;;;5063324;28;20076;-83
2021/08/10 00:23:04;;;;;;;4.28;2.30;;;16.90;99.90;;;;;;5065584;28;20021;-81
2021/08/10 00:25:29;;;;;;;3.75;1.80;;;16.90;99.90;;;;;;5061691;28;20029;-80
2021/08/10 00:27:56;;;;;;;8.15;2.10;;;16.90;99.90;;;;;;5061615;28;20482;-81
2021/08/10 00:30:22;;;;;;;6.70;1.77;;;18.30;99.90;;;;;;5061268;28;20036;-80
2021/08/10 00:32:48;;;;;;;3.33;1.75;;;;;;;;;;5065324;28;20028;-79
2021/08/10 00:35:14;;;;;;;4.53;1.90;;;;;;;;;;5062066;28;20058;-81
2021/08/10 00:37:41;;;;;;;3.58;1.73;;;;;;;;;;5067274;28;20074;-80
2021/08/10 00:40:08;;;;;;;5.95;2.00;;;16.90;99.90;;;;;;5067236;28;20028;-79
2021/08/10 00:42:34;;;;;;;7.25;2.10;;;16.90;99.90;;;;;;5059536;28;20077;-79
2021/08/10 00:44:59;;;;;;;5.22;1.77;;;16.90;99.90;;;;;;5057714;28;20021;-81
2021/08/10 00:47:25;;;;;;;6.18;2.20;;;;;;;;;;5063690;28;20017;-82
2021/08/10 00:49:51;;;;;;;3.55;2.17;;;;;;;;;;5065354;28;20025;-80
2021/08/10 00:52:17;;;;;;;4.65;2.40;;;16.90;99.90;;;;;;5061066;28;20025;-79
2021/08/10 00:54:43;;;;;;;4.28;2.00;;;16.90;99.90;;;;;;5064514;28;20047;-80
2021/08/10 00:57:09;;;;;;;6.32;2.30;;;;;;;;;;5064968;28;20514;-83
2021/08/10 00:59:35;;;;;;;5.88;2.35;;;;;;;;;;5065842;28;20482;-81
2021/08/10 01:02:03;;;;;;;4.75;2.10;;;16.80;99.90;;;;;;5063826;28;20045;-80
2021/08/10 01:04:29;;;;;;;4.93;2.10;;;;;;;;;;5060699;28;20021;-80
2021/08/10 01:07:21;;;;;;;4.25;2.22;;;16.90;99.90;;;;;;5062318;28;20468;-82
2021/08/10 01:09:47;;;;;;;4.68;2.50;;;;;;;;;;5060162;28;20051;-82
2021/08/10 01:12:24;;;;;;;4.65;2.17;;;16.80;99.90;;;;;;5068962;28;20032;-83
2021/08/10 01:15:01;;;;;;;5.80;2.53;;;16.80;99.90;;;;;;5068133;28;20021;-81
2021/08/10 01:17:45;;;;;;;8.55;2.15;;;17.20;99.90;;;;;;5061330;28;20021;-80
2021/08/10 01:20:56;;;;;;;3.17;1.92;;;16.80;99.90;;;;;;5065797;28;20032;-80
2021/08/10 01:23:27;;;;;;;4.93;2.08;;;16.60;99.90;;;;;;5060312;28;20087;-79
2021/08/10 01:26:29;;;;;;;3.97;2.20;;;19.50;99.90;;;;;;5065272;28;20028;-79
2021/08/10 01:29:01;;;;;;;14.02;3.72;;;16.60;99.90;;;;;;5060553;28;20179;-79
2021/08/10 01:31:34;;;;;;;5.82;2.72;;;16.60;99.90;;;;;;5060968;28;20112;-80
2021/08/10 01:34:26;;;;;;;4.78;2.67;;;16.70;99.90;;;;;;5079303;28;20029;-81
2021/08/10 01:36:59;;;;;;;4.85;2.60;;;16.70;99.90;;;;;;5059789;28;20052;-81
2021/08/10 01:39:28;;;;;;;5.07;2.97;;;16.60;99.90;;;;;;5076542;28;20026;-81
2021/08/10 01:41:55;;;;;;;5.05;2.70;;;18.60;99.90;;;;;;5058912;28;20027;-82
2021/08/10 01:44:25;;;;;;;4.03;2.00;;;;;;;;;;5065197;28;20047;-81
2021/08/10 01:46:52;;;;;;;7.07;2.78;;;16.70;99.90;;;;;;5059475;28;20013;-80
2021/08/10 01:49:18;;;;;;;5.88;2.65;;;16.80;99.90;;;;;;5063295;28;20028;-82
2021/08/10 01:51:45;;;;;;;6.45;2.50;;;17.90;99.90;;;;;;5063035;28;20033;-80
2021/08/10 01:54:12;;;;;;;7.38;2.38;;;17.00;99.90;;;;;;5064219;28;20025;-82
2021/08/10 01:56:40;;;;;;;4.53;2.40;;;19.00;99.90;;;;;;5064883;28;20056;-80
2021/08/10 01:59:07;;;;;;;5.78;2.10;;;16.80;99.90;;;;;;5055398;28;20116;-81
2021/08/10 02:01:35;;;;;;;4.28;2.20;;;17.10;99.90;;;;;;5063027;28;20025;-82
2021/08/10 02:04:03;;;;;;;6.00;2.25;;;18.20;99.90;;;;;;5081965;28;20334;-81
2021/08/10 02:06:30;;;;;;;6.20;2.22;;;16.90;99.90;;;;;;5065855;28;20043;-82
2021/08/10 02:08:58;;;;;;;4.57;1.98;;;16.80;99.90;;;;;;5067022;28;20024;-83
2021/08/10 02:11:28;;;;;;;3.95;2.10;;;17.50;99.90;;;;;;5074942;28;20017;-80
2021/08/10 02:13:55;;;;;;;5.60;2.10;;;16.80;99.90;;;;;;5056257;28;20044;-80
2021/08/10 02:16:23;;;;;;;5.82;1.88;;;16.80;99.90;;;;;;5067442;28;20029;-82
2021/08/10 02:18:50;;;;;;;4.13;1.98;;;;;;;;;;5064615;28;20035;-81
2021/08/10 02:21:43;;;;;;;6.35;2.00;;;16.80;99.90;;;;;;5065595;28;20050;-82
2021/08/10 02:24:24;;;;;;;4.88;1.95;;;16.80;99.90;;;;;;5064427;28;20059;-83
2021/08/10 02:26:58;;;;;;;6.95;2.53;;;16.80;99.90;;;;;;5064311;28;20029;-81
2021/08/10 02:29:28;;;;;;;4.13;1.90;;;16.80;99.90;;;;;;5079265;28;20080;-81
2021/08/10 02:31:54;;;;;;;7.28;2.10;;;16.70;99.90;;;;;;5062714;28;20048;-80
2021/08/10 02:34:21;;;;;;;9.90;2.58;;;16.70;99.90;;;;;;5065862;28;20032;-81
2021/08/10 02:36:52;;;;;;;5.25;2.40;;;16.70;99.90;;;;;;5066190;28;20406;-81
2021/08/10 02:39:20;;;;;;;5.32;2.70;;;19.10;99.90;;;;;;5067321;28;20029;-82
2021/08/10 02:41:46;;;;;;;6.85;2.35;;;;;;;;;;5065221;28;20036;-81
2021/08/10 02:44:13;;;;;;;5.82;2.50;;;16.50;99.90;;;;;;5065297;28;21144;-82
2021/08/10 02:46:42;;;;;;;4.28;2.22;;;;;;;;;;5066589;28;20037;-83
2021/08/10 02:49:09;;;;;;;6.47;2.47;;;16.50;99.90;;;;;;5065194;28;20029;-82
2021/08/10 02:51:35;;;;;;;8.48;2.50;;;;;;;;;;5064252;28;20045;-82
2021/08/10 02:54:02;;;;;;;7.32;2.90;;;16.50;99.90;;;;;;5064519;28;20037;-82
2021/08/10 02:56:33;;;;;;;6.05;2.58;;;16.50;99.90;;;;;;5059911;28;20132;-80
2021/08/10 02:59:00;;;;;;;4.63;2.20;;;16.60;99.90;;;;;;5063711;28;20025;-80
2021/08/10 03:01:32;;;;;;;4.38;2.20;;;16.60;99.90;;;;;;5055670;28;20093;-81
2021/08/10 03:04:01;;;;;;;7.38;2.60;;;16.50;99.90;;;;;;5065877;28;20021;-82
2021/08/10 03:06:30;;;;;;;7.43;2.78;;;16.50;99.90;;;;;;5060577;28;20040;-81
2021/08/10 03:09:00;;;;;;;10.98;4.00;;;16.50;99.90;;;;;;5069702;28;20017;-83
2021/08/10 03:11:33;;;;;;;7.20;3.00;;;16.50;99.90;;;;;;5058477;28;20032;-81
2021/08/10 03:14:01;;;;;;;5.45;2.40;;;16.40;99.90;;;;;;5062747;28;20597;-82
2021/08/10 03:16:30;;;;;;;4.05;2.13;;;16.50;99.90;;;;;;5071017;28;20043;-81
2021/08/10 03:19:00;;;;;;;6.53;2.50;;;16.50;99.90;;;;;;5061941;28;20040;-79
2021/08/10 03:21:27;;;;;;;;;;;16.50;99.90;;;;;;5063965;28;20035;-82
2021/08/10 03:23:54;;;;;;;8.63;2.30;;;16.40;99.90;;;;;;5064675;28;19920;-82
2021/08/10 03:26:23;;;;;;;5.07;2.45;;;16.40;99.90;;;;;;5063984;28;20044;-81
2021/08/10 03:28:50;;;;;;;6.47;2.85;;;16.30;99.90;;;;;;5063792;28;20039;-82
2021/08/10 03:31:17;;;;;;;6.85;2.85;;;;;;;;;;5058588;28;20021;-81
2021/08/10 03:33:43;;;;;;;5.90;2.60;;;16.40;99.90;;;;;;5060895;28;20032;-84
2021/08/10 03:36:10;;;;;;;6.95;3.08;;;16.40;99.90;;;;;;5067044;28;20031;-82
2021/08/10 03:38:37;;;;;;;7.68;2.58;;;16.30;99.90;;;;;;5062915;28;20088;-82
2021/08/10 03:41:04;;;;;;;7.93;2.80;;;16.40;99.90;;;;;;5067504;28;20021;-81
2021/08/10 03:43:30;;;;;;;5.95;2.50;;;;;;;;;;5064645;28;20026;-80
2021/08/10 03:45:56;;;;;;;6.70;2.72;;;;;;;;;;5063738;28;20031;-81
2021/08/10 03:48:23;;;;;;;7.78;3.28;;;;;;;;;;5062136;28;20479;-80
2021/08/10 03:50:50;;;;;;;6.85;2.50;;;16.40;99.90;;;;;;5061251;28;20036;-81
2021/08/10 03:53:17;;;;;;;4.90;2.47;;;;;;;;;;5066867;28;20035;-82
2021/08/10 03:55:46;;;;;;;5.18;2.40;;;16.40;99.90;;;;;;5065251;28;20025;-82
2021/08/10 03:58:13;;;;;;;7.65;2.65;;;;;;;;;;5069142;28;20021;-82
2021/08/10 04:00:39;;;;;;;5.10;2.65;;;16.50;99.90;;;;;;5063477;28;20033;-82
2021/08/10 04:03:08;;;;;;;5.63;2.45;;;;;;;;;;5064676;28;20033;-81
2021/08/10 04:05:39;;;;;;;5.10;2.13;;;16.40;99.90;;;;;;5065486;28;20108;-79
2021/08/10 04:08:09;;;;;;;4.88;2.30;;;16.50;99.90;;;;;;5071386;28;20025;-80
2021/08/10 04:10:38;;;;;;;4.68;2.38;;;16.40;99.90;;;;;;5067304;28;20033;-81
2021/08/10 04:13:04;;;;;;;6.25;3.22;;;16.50;99.90;;;;;;5069330;28;20059;-81
2021/08/10 04:15:30;;;;;;;4.72;2.33;;;;;;;;;;5067916;28;20072;-80
2021/08/10 04:17:57;;;;;;;7.63;2.50;;;16.40;99.90;;;;;;5061305;28;20029;-83
2021/08/10 04:20:23;;;;;;;4.28;2.08;;;16.30;99.90;;;;;;5066735;28;20020;-83
2021/08/10 04:22:49;;;;;;;4.70;2.38;;;;;;;;;;5064812;28;20051;-80
2021/08/10 04:25:18;;;;;;;6.25;2.55;;;;;;;;;;5071376;28;20025;-79
2021/08/10 04:27:44;;;;;;;4.07;2.30;;;;;;;;;;5063020;28;20170;-82
2021/08/10 04:30:10;;;;;;;4.05;2.25;;;16.20;99.90;;;;;;5066612;28;20029;-84
2021/08/10 04:32:35;;;;;;;4.80;2.50;;;16.20;99.90;;;;;;5064449;28;20029;-82
2021/08/10 04:35:02;;;;;;;7.40;2.30;;;16.30;99.90;;;;;;5062352;28;20036;-83
2021/08/10 04:37:28;;;;;;;7.00;2.55;;;;;;;;;;5061552;28;20033;-81
2021/08/10 04:39:54;;;;;;;4.80;2.50;;;;;;;;;;5066114;28;20029;-80
2021/08/10 04:42:20;;;;;;;6.95;3.67;;;;;;;;;;5067018;28;20025;-81
2021/08/10 04:44:46;;;;;;;8.55;2.90;;;;;;;;;;5065240;28;20021;-80
2021/08/10 04:47:12;;;;;;;7.28;3.70;;;;;;;;;;5061156;28;20021;-80
2021/08/10 04:49:38;;;;;;;7.75;3.10;;;;;;;;;;5060175;28;20376;-81
2021/08/10 04:52:04;;;;;;;9.75;3.00;;;;;;;;;;5059320;28;20081;-80
2021/08/10 04:54:30;;;;;;;7.82;3.08;;;;;;;;;;5059481;28;20024;-81
2021/08/10 04:56:56;;;;;;;5.05;2.55;;;;;;;;;;5056852;28;20025;-80
2021/08/10 04:59:22;;;;;;;6.57;2.70;;;;;;;;;;5065841;28;20055;-80
2021/08/10 05:01:48;;;;;;;8.13;3.10;;;16.30;99.90;;;;;;5058388;28;20029;-81
2021/08/10 05:04:13;;;;;;;4.90;2.85;;;18.20;99.90;;;;;;5066537;28;20482;-79
2021/08/10 05:06:39;;;;;;;6.03;2.53;;;;;;;;;;5063396;28;20013;-80
2021/08/10 05:09:08;;;;;;;9.73;2.58;;;;;;;;;;5065864;28;20029;-79
2021/08/10 05:11:35;;;;;;;6.18;2.85;;;;;;;;;;5059680;28;20022;-79
2021/08/10 05:14:01;;;;;;;7.32;2.97;;;;;;;;;;5057659;28;20116;-81
2021/08/10 05:16:27;;;;;;;4.82;2.58;;;;;;;;;;5064659;28;20028;-81
2021/08/10 05:18:53;;;;;;;9.20;2.88;;;;;;;;;;5057766;28;20025;-82
2021/08/10 05:21:19;;;;;;;6.40;2.70;;;;;;;;;;5074881;28;20115;-80
2021/08/10 05:23:46;;;;;;;6.47;3.10;;;;;;;;;;5079171;28;20021;-83
2021/08/10 05:26:12;;;;;;;5.82;2.85;;;;;;;;;;5064963;28;20024;-81
2021/08/10 05:28:38;;;;;;;4.78;2.50;;;;;;;;;;5061615;28;20060;-79
2021/08/10 05:31:04;;;;;;;6.15;2.47;;;;;;;;;;5060424;28;20025;-82
2021/08/10 05:33:30;;;;;;;7.18;2.55;;;;;;;;;;5054652;28;20116;-81
2021/08/10 05:35:56;;;;;;;6.40;2.38;;;;;;;;;;5063972;28;20085;-83
2021/08/10 05:38:22;;;;;;;8.40;2.80;;;;;;;;;;5068415;28;20020;-81
2021/08/10 05:40:48;;;;;;;5.95;2.95;;;;;;;;;;5067778;28;20052;-81
2021/08/10 05:43:14;;;;;;;7.50;3.00;;;;;;;;;;5068373;28;20053;-80
2021/08/10 05:45:40;;;;;;;7.25;2.90;;;;;;;;;;5062003;28;20021;-81
2021/08/10 05:48:06;;;;;;;7.32;2.90;;;;;;;;;;5061399;28;20048;-83
2021/08/10 05:50:32;;;;;;;5.88;2.53;;;;;;;;;;5065280;28;20035;-80
2021/08/10 05:52:58;;;;;;;6.50;2.80;;;;;;;;;;5063738;28;20029;-81
2021/08/10 05:55:24;;;;;;;6.20;2.90;;;;;;;;;;5064666;28;20075;-80
2021/08/10 05:57:50;;;;;;;7.40;2.88;;;;;;;;;;5064922;28;20037;-80
2021/08/10 06:00:16;;;;;;;5.18;2.70;;;16.10;99.90;;;;;;5069116;28;20025;-81
2021/08/10 06:02:42;;;;;;;4.97;2.80;;;;;;;;;;5071090;28;20040;-80
2021/08/10 06:05:08;;;;;;;5.07;2.30;;;;;;;;;;5067920;28;20035;-79
2021/08/10 06:07:34;;;;;;;6.85;2.53;;;;;;;;;;5065352;28;20025;-82
2021/08/10 06:10:00;;;;;;;5.40;2.65;;;;;;;;;;5064861;28;20051;-81
2021/08/10 06:12:26;;;;;;;6.80;2.72;;;;;;;;;;5061806;28;20029;-83
2021/08/10 06:14:52;;;;;;;4.97;2.20;;;;;;;;;;5065710;28;20029;-81
2021/08/10 06:17:18;;;;;;;5.50;2.35;;;;;;;;;;5060687;28;20083;-82
2021/08/10 06:19:44;;;;;;;6.82;2.80;;;;;;;;;;5052113;28;20034;-82
2021/08/10 06:22:10;;;;;;;4.13;2.30;;;;;;;;;;5060555;28;20021;-82
2021/08/10 06:24:36;;;;;;;5.03;2.28;;;;;;;;;;5063492;28;20064;-83
2021/08/10 06:27:02;;;;;;;6.13;2.30;;;;;;;;;;5055122;28;20037;-81
2021/08/10 06:29:28;;;;;;;5.72;2.53;;;;;;;;;;5064052;28;20067;-82
2021/08/10 06:31:54;;;;;;;4.38;1.90;;;;;;;;;;5065057;28;20029;-81
2021/08/10 06:34:20;;;;;;;3.35;2.03;;;;;;;;;;5072501;28;20021;-81
2021/08/10 06:36:46;;;;;;;4.90;2.08;;;17.20;99.90;;;;;;5053397;28;20089;-81
2021/08/10 06:39:12;;;;;;;5.05;2.65;;;;;;;;;;5062790;28;20085;-81
2021/08/10 06:41:37;;;;;;;6.75;2.35;;;17.20;99.90;;;;;;5057825;28;20040;-82
2021/08/10 06:44:03;;;;;;;10.02;3.97;;;17.30;99.90;;;;;;5084411;28;20021;-81
2021/08/10 06:46:30;;;;;;;6.57;2.80;;;17.30;99.90;;;;;;5065694;28;20020;-80
2021/08/10 06:48:55;;;;;;;6.63;2.15;;;17.40;99.90;;;;;;5073334;28;20032;-82
2021/08/10 06:51:21;;;;;;;5.10;2.58;;;;;;;;;;5062155;28;20038;-81
2021/08/10 06:53:47;;;;;;;7.55;2.40;;;;;;;;;;5079145;28;20028;-81
2021/08/10 06:56:13;;;;;;;4.72;2.42;;;17.50;99.90;;;;;;5065725;28;20166;-81
2021/08/10 06:58:39;;;;;;;5.30;2.15;;;;;;;;;;5065477;28;20565;-80
2021/08/10 07:01:05;;;;;;;4.03;2.30;;;;;;;;;;5065206;28;20040;-79
2021/08/10 07:03:34;;;;;;;6.20;2.20;;;17.50;99.90;;;;;;5053862;28;20034;-81
2021/08/10 07:05:59;;;;;;;5.05;2.15;;;17.50;99.90;;;;;;5057231;28;20045;-80
2021/08/10 07:08:25;;;;;;;5.10;2.17;;;17.70;99.90;;;;;;5061281;28;20048;-80
2021/08/10 07:10:51;;;;;;;4.90;2.85;;;17.70;99.90;;;;;;5072703;28;20033;-79
2021/08/10 07:13:16;;;;;;;4.53;1.90;;;17.70;99.90;;;;;;5050439;28;20111;-80
2021/08/10 07:15:42;;;;;;;8.95;2.85;;;;;;;;;;5042182;28;20021;-80
2021/08/10 07:18:08;;;;;;;6.50;2.38;;;;;;;;;;5061669;28;20040;-82
2021/08/10 07:20:34;;;;;;;8.60;2.70;;;;;;;;;;5059855;28;20036;-80
2021/08/10 07:23:00;;;;;;;5.50;2.60;;;18.10;99.90;;;;;;5062145;28;20082;-79
2021/08/10 07:25:26;;;;;;;6.55;2.50;;;;;;;;;;5052103;28;20070;-80
2021/08/10 07:27:52;;;;;;;5.18;2.58;;;18.20;99.90;;;;;;5047850;28;20112;-83
2021/08/10 07:30:18;;;;;;;5.28;2.03;;;;;;;;;;5058768;28;20028;-81
2021/08/10 07:32:45;;;;;;;4.00;2.30;;;;;;;;;;5052120;28;20043;-82
2021/08/10 07:35:10;;;;;;;6.75;2.40;;;18.30;99.90;;;;;;5067226;28;20021;-82
2021/08/10 07:37:41;;;;;;;5.18;2.50;;;18.30;99.90;;;;;;5058010;28;20040;-79
2021/08/10 07:40:07;;;;;;;;;;;18.40;99.90;;;;;;5058936;28;20029;-81
2021/08/10 07:42:33;;;;;;;5.30;2.13;;;;;;;;;;5051359;28;19954;-82
2021/08/10 07:44:58;;;;;;;3.75;2.10;;;18.50;99.90;;;;;;5061902;28;20082;-81
2021/08/10 07:47:24;;;;;;;9.68;2.58;;;18.60;99.90;;;;;;5073157;28;20321;-80
2021/08/10 07:49:50;;;;;;;5.03;2.30;;;18.70;99.90;;;;;;5049141;28;20422;-81
2021/08/10 07:52:15;;;;;;;5.20;2.67;;;18.70;99.90;;;;;;5053873;28;20025;-82
2021/08/10 07:54:42;;;;;;;5.72;2.55;;;18.80;99.90;;;;;;5066548;28;20033;-83
2021/08/10 07:57:08;;;;;;;4.97;2.10;;;;;;;;;;5052992;28;20068;-81
2021/08/10 07:59:33;;;;;;;4.93;2.15;;;19.10;99.90;;;;;;5054108;28;20394;-80
2021/08/10 08:02:00;;;;;;;5.07;1.88;;;19.30;99.90;;;;;;5055338;28;20025;-81
2021/08/10 08:04:26;;;;;;;4.07;2.00;;;;;;;;;;5059837;28;20029;-81
2021/08/10 08:06:52;;;;;;;3.97;1.98;;;19.60;99.90;;;;;;5062042;28;20454;-81
2021/08/10 08:09:17;;;;;;;4.80;2.00;;;19.50;99.90;;;;;;5055727;28;20507;-82
2021/08/10 08:11:44;;;;;;;5.95;1.92;;;;;;;;;;5048886;28;20036;-79
2021/08/10 08:14:10;;;;;;;6.03;2.10;;;;;;;;;;5061649;28;20031;-79
2021/08/10 08:16:35;;;;;;;7.18;2.95;;;19.60;99.90;;;;;;5063335;28;20029;-82
2021/08/10 08:19:01;;;;;;;6.82;2.20;;;19.70;99.90;;;;;;5060412;28;20033;-81
2021/08/10 08:21:27;;;;;;;5.45;2.33;;;;;;;;;;5055805;28;20024;-80
2021/08/10 08:23:53;;;;;;;5.75;2.20;;;19.50;99.90;;;;;;5059413;28;20087;-81
2021/08/10 08:26:21;;;;;;;4.65;2.60;;;19.50;99.90;;;;;;5071953;28;20088;-81
2021/08/10 08:28:47;;;;;;;7.32;2.60;;;;;;;;;;5057010;28;20112;-83
2021/08/10 08:31:14;;;;;;;5.20;2.35;;;;;;;;;;5052613;28;20028;-82
2021/08/10 08:33:40;;;;;;;5.10;2.60;;;;;;;;;;5053266;28;20041;-79
2021/08/10 08:36:06;;;;;;;5.70;2.20;;;;;;;;;;5052376;28;20029;-83
2021/08/10 08:38:33;;;;;;;6.70;3.25;;;;;;;;;;5056429;28;20036;-81
2021/08/10 08:40:58;;;;;;;7.78;2.92;;;19.60;99.90;;;;;;5058240;28;20064;-81
2021/08/10 08:43:25;;;;;;;5.22;2.47;;;;;;;;;;5050247;28;20407;-83
2021/08/10 08:45:51;;;;;;;4.32;2.10;;;;;;;;;;5050002;28;20031;-79
2021/08/10 08:48:17;;;;;;;6.85;2.58;;;;;;;;;;5048591;28;20033;-79
2021/08/10 08:50:49;;;;;;;5.07;2.38;;;20.00;99.90;;;;;;5063070;28;20035;-78
2021/08/10 08:53:15;;;;;;;7.03;2.67;;;20.00;99.90;;;;;;5058366;28;20173;-78
2021/08/10 08:55:45;;;;;;;7.28;2.63;;;20.00;99.90;;;;;;5063106;28;20039;-80
2021/08/10 08:58:11;;;;;;;4.93;2.55;;;20.00;99.90;;;;;;5055402;28;20060;-80
2021/08/10 09:00:37;;;;;;;4.78;2.47;;;;;;;;;;5060410;28;20029;-80
2021/08/10 09:03:03;;;;;;;6.55;2.67;;;;;;;;;;5055769;28;20033;-80
2021/08/10 09:05:32;;;;;;;4.25;1.80;;;;;;;;;;5054963;28;20017;-79
2021/08/10 09:07:59;;;;;;;5.70;2.70;;;;;;;;;;5048151;28;20490;-78
2021/08/10 09:10:29;;;;;;;5.28;2.20;;;;;;;;;;5052890;28;20032;-78
2021/08/10 09:12:56;;;;;;;6.10;2.20;;;;;;;;;;5058528;28;20033;-82
2021/08/10 09:15:31;;;;;;;5.78;2.20;;;20.80;99.90;;;;;;5052126;28;20026;-81
2021/08/10 09:18:07;;;;;;;5.30;2.50;;;20.80;99.90;;;;;;5048734;28;20095;-79
2021/08/10 09:20:33;;;;;;;9.20;2.47;;;20.80;99.90;;;;;;5050449;28;20025;-78
2021/08/10 09:22:59;;;;;;;3.42;1.98;;;;;;;;;;5053632;28;20076;-79
2021/08/10 09:25:25;;;;;;;5.93;2.42;;;;;;;;;;5064223;28;20024;-80
2021/08/10 09:28:01;;;;;;;6.05;2.20;;;;;;;;;;5040181;28;20104;-80
2021/08/10 09:30:27;;;;;;;7.53;2.17;;;;;;;;;;5045712;28;20051;-80
2021/08/10 09:32:55;;;;;;;4.70;2.10;;;21.10;99.90;;;;;;5054919;28;20049;-80
2021/08/10 09:35:23;;;;;;;5.80;2.40;;;21.20;99.90;;;;;;5051674;28;20025;-80
2021/08/10 09:38:16;;;;;;;4.00;1.70;;;21.40;99.90;;;;;;5054901;28;20032;-79
2021/08/10 09:40:46;;;;;;;3.10;1.83;;;21.50;99.90;;;;;;5070086;28;20037;-79
2021/08/10 09:43:17;;;;;;;;;;;21.80;99.30;;;;;;5066260;28;20037;-80
2021/08/10 09:45:43;;;;;;;5.40;1.90;;;;;;;;;;5055450;28;19913;-79
2021/08/10 09:48:14;;;;;;;6.15;1.73;;;22.40;97.80;;;;;;5048302;28;20128;-79
2021/08/10 09:50:40;;;;;;;4.70;2.03;;;;;;;;;;5044656;28;20407;-80
2021/08/10 09:53:19;;;;;;;4.53;1.90;;;22.20;98.00;;;;;;5053288;28;20040;-79
2021/08/10 09:55:55;;;;;;;4.93;2.00;;;22.20;98.00;;;;;;5059721;28;20028;-80
2021/08/10 09:58:21;;;;;;;9.32;1.85;;;21.90;98.10;;;;;;5056169;28;20053;-78
2021/08/10 10:00:49;;;;;;;6.85;2.42;;;;;;;;;;5053284;28;20459;-80
2021/08/10 10:03:26;;;;;;;8.88;1.98;;;21.90;98.10;;;;;;5052053;28;20025;-79
2021/08/10 10:05:52;;;;;;;7.43;1.70;;;;;;;;;;5053570;28;20048;-78
2021/08/10 10:08:25;;;;;;;3.63;1.70;;;22.20;98.30;;;;;;5060582;28;20108;-79
2021/08/10 10:10:55;;;;;;;4.57;1.70;;;22.20;98.00;;;;;;5053348;28;20112;-78
2021/08/10 10:13:22;;;;;;;3.05;1.48;;;22.40;98.20;;;;;;5049130;28;20028;-79
2021/08/10 10:15:49;;;;;;;5.40;2.40;;;22.30;97.90;;;;;;5055132;28;20031;-79
2021/08/10 10:18:16;;;;;;;4.82;1.70;;;22.40;97.90;;;;;;5050176;28;20056;-78
2021/08/10 10:20:44;;;;;;;4.53;1.77;;;22.60;96.70;;;;;;5054081;28;20028;-77
2021/08/10 10:23:16;;;;;;;6.85;1.90;;;22.60;96.90;;;;;;5052258;28;20029;-78
2021/08/10 10:25:42;;;;;;;4.82;2.00;;;;;;;;;;5055123;28;20027;-79
2021/08/10 10:28:08;;;;;;;4.45;1.85;;;22.40;97.70;;;;;;5046759;28;20037;-79
2021/08/10 10:30:34;;;;;;;5.07;1.70;;;22.40;98.10;;;;;;5049034;28;20029;-77
2021/08/10 10:33:01;;;;;;;5.95;2.00;;;22.70;96.50;;;;;;5056245;28;20024;-78
2021/08/10 10:35:27;;;;;;;2.78;1.50;;;22.70;97.00;;;;;;5051123;28;20028;-78
2021/08/10 10:37:54;;;;;;;4.93;1.77;;;;;;;;;;5053259;28;20429;-79
2021/08/10 10:40:21;;;;;;;5.63;2.05;;;22.70;95.50;;;;;;5048414;28;20518;-79
2021/08/10 10:42:50;;;;;;;4.82;1.98;;;22.60;96.60;;;;;;5047908;28;20056;-78
2021/08/10 10:45:36;;;;;;;3.63;1.73;;;22.90;96.00;;;;;;5049288;28;20483;-77
2021/08/10 10:48:22;;;;;;;4.20;1.80;;;23.10;95.60;;;;;;5049523;28;20032;-78
2021/08/10 10:51:11;;;;;;;3.42;1.55;;;23.10;94.10;;;;;;5044306;28;20549;-77
2021/08/10 10:53:37;;;;;;;3.75;1.65;;;23.10;94.10;;;;;;5059563;28;20033;-78
2021/08/10 10:56:03;;;;;;;3.88;1.77;;;23.60;94.40;;;;;;5051440;28;20087;-78
2021/08/10 10:58:33;;;;;;;4.93;1.70;;;23.40;93.50;;;;;;5040540;28;20129;-77
2021/08/10 11:01:12;;;;;;;3.33;1.63;;;23.40;93.20;;;;;;5050746;28;20026;-80
2021/08/10 11:03:39;;;;;;;7.28;1.95;;;;;;;;;;5053872;28;20021;-80
2021/08/10 11:06:30;;;;;;;4.25;1.83;;;23.60;93.40;;;;;;5068464;28;20087;-79
2021/08/10 11:08:56;;;;;;;4.35;2.08;;;;;;;;;;5052461;28;20441;-79
2021/08/10 11:11:48;;;;;;;5.88;1.63;;;23.40;93.30;;;;;;5050798;28;20141;-79
2021/08/10 11:14:37;;;;;;;3.35;2.00;;;23.50;94.00;;;;;;5049406;28;20064;-78
2021/08/10 11:17:12;;;;;;;6.10;1.77;;;;;;;;;;5043693;28;20057;-79
2021/08/10 11:19:40;;;;;;;4.05;1.70;;;23.80;93.10;;;;;;5051676;28;20021;-78
2021/08/10 11:22:15;;;;;;;3.78;1.95;;;;;;;;;;5052960;28;20454;-79
2021/08/10 11:24:43;;;;;;;4.68;1.98;;;23.60;93.00;;;;;;5064772;28;20165;-79
2021/08/10 11:27:43;;;;;;;3.80;1.95;;;23.60;93.00;;;;;;5054561;28;20052;-80
2021/08/10 11:30:21;;;;;;;10.18;4.30;;;;;;;;;;5061249;28;20033;-80
2021/08/10 11:32:48;;;;;;;4.85;2.10;;;23.70;92.70;;;;;;5055530;28;20025;-78
2021/08/10 11:35:23;;;;;;;4.13;2.00;;;23.80;92.70;;;;;;5050821;28;20035;-80
2021/08/10 11:38:11;;;;;;;7.50;1.95;;;24.00;92.70;;;;;;5051273;28;20032;-80
2021/08/10 11:40:55;;;;;;;4.15;1.70;;;;;;;;;;5064376;28;20101;-79
2021/08/10 11:43:38;;;;;;;4.53;1.80;;;23.90;92.30;;;;;;5045038;28;20017;-81
2021/08/10 11:46:06;;;;;;;3.58;1.90;;;24.20;92.10;;;;;;5053642;28;20021;-78
2021/08/10 11:49:05;;;;;;;4.13;1.83;;;24.20;92.30;;;;;;5056829;28;20021;-78
2021/08/10 11:51:41;;;;;;;5.75;2.10;;;24.40;92.40;;;;;;5044792;28;20037;-79
2021/08/10 11:54:18;;;;;;;4.47;2.10;;;24.40;91.70;;;;;;5053851;28;20029;-78
2021/08/10 11:56:53;;;;;;;3.70;1.70;;;24.40;91.90;;;;;;5054357;28;20025;-79
2021/08/10 11:59:24;;;;;;;3.65;1.90;;;24.50;91.90;;;;;;5053276;28;20071;-80
2021/08/10 12:01:51;;;;;;;3.90;1.67;;;24.60;91.70;;;;;;5046888;28;20018;-79
2021/08/10 12:04:22;;;;;;;6.50;2.38;;;24.80;91.20;;;;;;5057286;28;20044;-79
2021/08/10 12:06:53;;;;;;;6.93;2.08;;;24.70;91.20;;;;;;5079724;28;20633;-79
2021/08/10 12:09:20;;;;;;;4.18;1.95;;;24.70;90.80;;;;;;5053645;28;20025;-79
2021/08/10 12:11:57;;;;;;;5.35;2.03;;;24.50;91.10;;;;;;5063267;28;20032;-77
2021/08/10 12:14:29;;;;;;;4.25;2.63;;;24.10;91.40;;;;;;5050022;28;20036;-79
2021/08/10 12:16:57;;;;;;;6.47;2.08;;;24.20;91.90;;;;;;5054406;28;20029;-79
2021/08/10 12:19:39;;;;;;;4.20;1.90;;;24.30;91.40;;;;;;5060237;28;20025;-78
2021/08/10 12:22:06;;;;;;;5.40;1.83;;;24.30;91.70;;;;;;5050766;28;20032;-79
2021/08/10 12:24:38;;;;;;;7.78;2.85;;;24.70;90.70;;;;;;5058811;28;20380;-78
2021/08/10 12:27:08;;;;;;;3.60;1.92;;;24.70;91.00;;;;;;5048654;28;20021;-79
2021/08/10 12:29:41;;;;;;;3.10;1.83;;;24.80;90.80;;;;;;5052625;28;20122;-79
2021/08/10 12:32:09;;;;;;;4.63;2.10;;;24.90;90.70;;;;;;5070601;28;20053;-79
2021/08/10 12:34:38;;;;;;;3.70;1.90;;;24.90;90.50;;;;;;5058448;28;20426;-78
2021/08/10 12:37:06;;;;;;;4.90;2.10;;;24.90;90.50;;;;;;5050866;28;20021;-80
2021/08/10 12:39:37;;;;;;;5.97;2.13;;;24.70;91.00;;;;;;5049405;28;20024;-78
2021/08/10 12:42:03;;;;;;;4.43;2.20;;;24.70;91.00;;;;;;5052807;28;20029;-78
2021/08/10 12:44:29;;;;;;;5.20;2.10;;;;;;;;;;5048160;28;20071;-79
2021/08/10 12:46:57;;;;;;;4.55;2.10;;;24.60;90.50;;;;;;5046947;28;20021;-76
2021/08/10 12:49:35;;;;;;;6.35;2.33;;;24.50;90.80;;;;;;5054561;28;20036;-79
2021/08/10 12:52:12;;;;;;;5.57;2.15;;;24.50;91.00;;;;;;5057856;28;20402;-78
2021/08/10 12:54:50;;;;;;;4.50;1.85;;;24.50;90.90;;;;;;5050353;28;20029;-79
2021/08/10 12:57:22;;;;;;;4.32;2.42;;;24.50;90.60;;;;;;5040244;28;20024;-78
2021/08/10 12:59:54;;;;;;;4.05;1.90;;;24.50;90.80;;;;;;5050198;28;20554;-78
2021/08/10 13:02:43;;;;;;;3.65;2.00;;;24.40;90.60;;;;;;5064630;28;20021;-79
2021/08/10 13:05:11;;;;;;;3.83;1.77;;;24.40;90.60;;;;;;5058108;28;20017;-79
2021/08/10 13:07:38;;;;;;;4.72;2.22;;;24.40;90.40;;;;;;5044083;28;20389;-78
2021/08/10 13:10:06;;;;;;;6.30;2.33;;;24.40;90.60;;;;;;5046913;28;20076;-78
2021/08/10 13:12:32;;;;;;;5.10;2.00;;;24.40;90.60;;;;;;5048673;28;20496;-79
2021/08/10 13:15:01;;;;;;;7.03;4.22;;;;;;;;;;5058238;28;20033;-79
2021/08/10 13:17:44;;;;;;;4.40;2.40;;;24.30;90.50;;;;;;5042829;28;20652;-79
2021/08/10 13:20:15;;;;;;;7.47;2.13;;;24.30;90.40;;;;;;5054840;28;20036;-80
2021/08/10 13:23:01;;;;;;;3.75;2.28;;;24.30;90.50;;;;;;5061642;28;20030;-80
2021/08/10 13:25:28;;;;;;;4.70;2.15;;;24.20;89.40;;;;;;5048968;28;21179;-79
2021/08/10 13:28:11;;;;;;;7.57;2.60;;;24.20;89.60;;;;;;5043517;28;20034;-79
2021/08/10 13:30:37;;;;;;;3.97;2.20;;;;;;;;;;5053753;28;20029;-79
2021/08/10 13:33:03;;;;;;;4.13;2.00;;;;;;;;;;5050989;28;20040;-79
2021/08/10 13:35:29;;;;;;;4.57;2.10;;;;;;;;;;5054290;28;20026;-80
2021/08/10 13:37:55;;;;;;;4.80;2.40;;;;;;;;;;5049403;28;20025;-79
2021/08/10 13:40:21;;;;;;;5.30;2.28;;;24.10;88.40;;;;;;5047910;28;20017;-79